Goldboro, Canada
Current Conditions -  °F | °C
As of 12:00 PM on Monday 24 Nov 2014 (Local Time) from CYPD Reporting Station
Overcast Overcast  
Wind Chill: 38°   Ceiling: 13000
Heat Index: 45°   Visibility: 9mi
Dew Point: 37°   Wind: 14mph
Humidity: 76%   Direction: 130°SE
Pressure: 30.24"   Gusts: 21mph
Location:  45.18°N, 61.65°W
Report Text: CYPD 241600Z AUTO 13012G18KT 120V180 9SM SCT023 OVC130 07/03 A3024 RMK PRESFR SLP244
Loading
Personal Weather Stations






























Interactive Weather Map New forecast layout! Learn more

10-Day Weather Forecast

Advertisements
Track Severe Weather on mobile